< Typhoon 201511 2015 Season Typhoon 201513 >
Typhoon 201512 (HALOLA)
General InformationTrack Information on Google MapsDetailed Wind InformationForecast History on Google MapsAccess Analytics MapList of All Images || NewsDisaster Info.WeblogTrackbackTyphoon FrontTwiphoonTyphoon Now!Typhoon ImaginationDisaster Info. XMLResourceGoogle EarthGE AnimationAtom FeedGeoJSON
Detalied Best Track (Time Zone = UTC)
Year Month Day Hour Lat. Long. Pressure (hPa) Wind (kt) Class Image Chart
2015 7 12 18 12.6 180.7 990 50 7 Image Chart
2015 7 13 00 13.0 179.8 990 50 4 Image Chart
2015 7 13 06 13.6 178.8 985 55 4 Image Chart
2015 7 13 12 14.1 177.5 980 60 4 Image Chart
2015 7 13 18 14.6 176.4 980 60 4 Image Chart
2015 7 14 00 15.2 175.5 975 65 5 Image Chart
2015 7 14 06 15.7 174.4 970 70 5 Image Chart
2015 7 14 12 16.3 173.2 970 70 5 Image Chart
2015 7 14 18 16.6 172.0 975 65 5 Image Chart
2015 7 15 00 17.0 171.6 975 65 5 Image Chart
2015 7 15 06 17.4 170.6 980 60 4 Image Chart
2015 7 15 12 18.0 169.4 980 60 4 Image Chart
2015 7 15 18 18.4 167.9 980 60 4 Image Chart
2015 7 16 00 18.5 166.8 985 55 4 Image Chart
2015 7 16 06 18.6 165.7 990 50 4 Image Chart
2015 7 16 12 18.5 164.2 996 40 3 Image Chart
2015 7 16 18 18.4 162.5 1000 35 3 Image Chart
2015 7 17 00 18.2 161.3 1004 0 2 Image Chart
2015 7 17 06 18.0 160.3 1004 0 2 Image Chart
2015 7 17 12 17.9 159.4 1004 0 2 Image Chart
2015 7 17 18 17.7 158.5 1004 0 2 Image Chart
2015 7 18 00 17.6 157.3 1004 0 2 Image Chart
2015 7 18 06 17.7 155.9 1006 0 2 Image Chart
2015 7 18 12 17.8 154.8 1008 0 2 Image Chart
2015 7 18 18 18.2 153.6 1008 0 2 Image Chart
2015 7 19 00 18.9 152.7 1008 0 2 Image Chart
2015 7 19 06 19.6 151.8 1006 0 2 Image Chart
2015 7 19 12 20.0 150.5 1004 0 2 Image Chart
2015 7 19 18 20.4 149.5 1000 35 3 Image Chart
2015 7 20 00 21.0 148.5 996 40 3 Image Chart
2015 7 20 06 21.5 147.4 990 50 4 Image Chart
2015 7 20 12 21.7 146.4 990 50 4 Image Chart
2015 7 20 18 22.0 145.4 985 55 4 Image Chart
2015 7 21 00 22.4 144.1 975 65 5 Image Chart
2015 7 21 06 22.6 142.9 970 70 5 Image Chart
2015 7 21 12 22.9 141.7 965 75 5 Image Chart
2015 7 21 18 23.0 140.5 955 80 5 Image Chart
2015 7 22 00 23.3 139.6 955 80 5 Image Chart
2015 7 22 06 23.6 138.5 955 80 5 Image Chart
2015 7 22 12 23.8 137.7 955 80 5 Image Chart
2015 7 22 18 24.2 136.8 955 80 5 Image Chart
2015 7 23 00 24.4 136.0 965 75 5 Image Chart
2015 7 23 06 24.6 135.1 965 75 5 Image Chart
2015 7 23 12 24.5 134.3 965 75 5 Image Chart
2015 7 23 18 24.6 133.4 965 75 5 Image Chart
2015 7 23 21 24.6 133.1 965 75 5 Image Chart
2015 7 24 00 24.9 132.7 965 75 5 Image Chart
2015 7 24 03 24.8 132.1 965 75 5 Image Chart
2015 7 24 06 24.8 131.8 965 75 5 Image Chart
2015 7 24 09 24.9 131.3 965 75 5 Image Chart
2015 7 24 12 25.0 131.1 970 70 5 Image Chart
2015 7 24 15 25.2 130.8 970 70 5 Image Chart
2015 7 24 18 25.5 130.6 975 65 5 Image Chart
2015 7 24 21 25.8 130.2 975 65 5 Image Chart
2015 7 25 00 26.2 129.9 975 65 5 Image Chart
2015 7 25 03 26.8 129.8 975 65 5 Image Chart
2015 7 25 06 27.4 129.6 975 65 5 Image Chart
2015 7 25 09 27.8 129.3 975 65 5 Image Chart
2015 7 25 12 28.3 129.2 980 60 4 Image Chart
2015 7 25 15 28.8 129.1 980 60 4 Image Chart
2015 7 25 18 29.4 129.1 980 60 4 Image Chart
2015 7 25 21 30.1 129.2 985 55 4 Image Chart
2015 7 26 00 31.0 129.3 990 50 4 Image Chart
2015 7 26 03 31.7 129.3 990 50 4 Image Chart
2015 7 26 06 32.4 129.5 994 45 3 Image Chart
2015 7 26 09 33.0 129.7 996 40 3 Image Chart
2015 7 26 10 33.1 129.8 998 40 3 Image Chart
2015 7 26 12 33.8 130.0 1004 0 2 Image Chart
Japan Meteorological Agency Best Track Data | Correction Date : 2015-08-19
< Typhoon 201511 2015 Season Typhoon 201513 >

Help